Rancho La Tuna Canyon, California
Current Conditions -  °F | °C
As of 3:53 AM on Thursday 25 Dec 2014 (Local Time) from KBUR Reporting Station
Clear Clear  
Wind Chill: 54°   Ceiling: Unl
Heat Index: 54°   Visibility: 10mi
Dew Point: 33°   Wind: 14mph
Humidity: 45%   Direction: 360°N
Pressure: 29.81"   Gusts: 23mph
Location:  34.2294°N, 118.357°W
Report Text: KBUR 251153Z 36012G20KT 10SM CLR 12/01 A2981 RMK AO2 PK WND 34026/1054 SLP084 T01220006 10144 20117 51002
Loading
Personal Weather Stations






























Interactive Weather Map New forecast layout! Learn more

10-Day Weather Forecast

Advertisements
Track Severe Weather on mobile